DONNELLS (DON)

Elevation: 4835' · STANISLAUS R basin · Operator: US Bureau of Reclamation

Provisional data, subject to change.
Query executed Tuesday at 20:34:20   clock

Select a sensor type for a plot of data.
Note: Reservoir Flows are daily averages.

Earlier

Date STORAGE    RES CHG    OUTFLOW   
 AF   AF   CFS  
05/01/2016 50860 318 671
05/02/2016 51289 429 675
05/03/2016 51913 624 701
05/04/2016 52691 778 730
05/05/2016 53689 998 704
05/06/2016 54790 1101 665
05/07/2016 55948 1158 659
05/08/2016 56909 961 646
05/09/2016 57771 862 806
05/10/2016 58422 651 1294
05/11/2016 58690 268 1607
05/12/2016 59001 311 1839
05/13/2016 59320 319 2593
05/14/2016 59435 115 2466
05/15/2016 59156 -279 2352
05/16/2016 58931 -225 2034
05/17/2016 58876 -55 1890
05/18/2016 58919 43 1902
05/19/2016 59124 205 2022
05/20/2016 58944 -180 2145
05/21/2016 58405 -- 1662
05/22/2016 58035 -- 1298
05/23/2016 57836 -199 1100
05/24/2016 57751 -85 1019
05/25/2016 57625 -126 949
05/26/2016 57625 0 916
05/27/2016 57832 207 977
05/28/2016 58137 305 1175
05/29/2016 58234 97 1297
05/30/2016 58438 204 1419
05/31/2016 -- -- --

Later | Latest

Warning! This data is preliminary and subject to revision.

Show DON Map | Plot DON Data | 1 Month DON Data | Real-Time DON Data | DON Info